Terminal Aerodrome Forecast
Issued by NWS

Home | Current Version | Previous Version | Text Only | Print | Product List | Glossary On
Versions: 1 2 3 4 5 6 7 8 9 10 11 12 13 14 15 16 17 18
000
FTAK31 PAJN 261127
TAFAYA
TAF
PAYA 261127Z 2612/2712 00000KT P6SM OVC014
     FM261500 VRB03KT P6SM FEW015 BKN025 OVC050
     FM261700 24006KT P6SM BKN015 OVC025
     FM262200 27008KT P6SM OVC015
     FM270000 27007KT P6SM VCSH OVC015
     FM270600 VRB02KT P6SM VCSH OVC015
      AMD LTD TO CLD VIS AND WIND=

USA.gov is the U.S. government's official web portal to all federal, state and local government web resources and services.